Time;durP1;ratioP1;P1;durP2;ratioP2;P2;SDS_P1;SDS_P2;PMS_P1;PMS_P2;Temp;Humidity;BMP_temperature;BMP_pressure;BME280_temperature;BME280_humidity;BME280_pressure;Samples;Min_cycle;Max_cycle;Signal;HPM_P1;HPM_P2
2023/12/19 00:06:01;;;;;;;40.43;11.77;;;;;;;;;;31539379;28;20519;-75
2023/12/19 00:21:03;;;;;;;36.03;12.73;;;;;;;;;;31547875;28;20051;-75
2023/12/19 00:36:06;;;;;;;35.33;12.40;;;;;;;;;;31573585;28;20048;-76
2023/12/19 00:51:09;;;;;;;27.73;10.73;;;;;;;;;;31580823;28;20143;-75
2023/12/19 01:06:11;;;;;;;29.73;9.87;;;;;;;;;;31576526;28;20396;-76
2023/12/19 01:21:13;;;;;;;35.73;11.20;;;;;;;;;;31587564;28;20048;-75
2023/12/19 01:36:15;;;;;;;28.23;10.17;;;;;;;;;;31606391;28;20048;-76
2023/12/19 01:51:17;;;;;;;29.80;10.77;;;;;;;;;;31552480;28;20055;-75
2023/12/19 02:06:19;;;;;;;37.40;11.10;;;;;;;;;;31582276;28;20052;-74
2023/12/19 02:21:21;;;;;;;43.83;12.47;;;;;;;;;;31584156;28;20063;-73
2023/12/19 02:36:23;;;;;;;41.30;11.90;;;;;;;;;;31591656;28;20044;-73
2023/12/19 02:51:26;;;;;;;30.40;11.40;;;;;;;;;;31586731;28;20102;-75
2023/12/19 03:06:27;;;;;;;34.33;11.53;;;;;;;;;;31586383;28;20047;-72
2023/12/19 03:21:29;;;;;;;33.03;10.87;;;;;;;;;;31594437;28;20063;-73
2023/12/19 03:36:31;;;;;;;31.40;12.17;;;;;;;;;;31608513;28;20059;-76
2023/12/19 03:51:33;;;;;;;28.30;10.50;;;;;;;;;;31619214;28;20086;-76
2023/12/19 04:06:35;;;;;;;32.70;11.33;;;;;;;;;;31615408;28;20044;-76
2023/12/19 04:21:37;;;;;;;32.13;10.07;;;;;;;;;;31582355;28;20053;-76
2023/12/19 04:36:39;;;;;;;30.70;11.60;;;;;;;;;;31586119;28;20052;-74
2023/12/19 04:51:41;;;;;;;28.93;11.10;;;;;;;;;;31588737;28;20051;-75
2023/12/19 05:06:43;;;;;;;30.27;11.37;;;;;;;;;;31587157;28;20056;-74
2023/12/19 05:21:44;;;;;;;26.27;10.47;;;;;;;;;;31605020;28;20056;-75
2023/12/19 05:36:47;;;;;;;33.53;11.43;;;;;;;;;;31597269;28;20458;-73
2023/12/19 05:51:48;;;;;;;25.63;11.47;;;;;;;;;;31590037;28;20044;-74
2023/12/19 06:06:50;;;;;;;32.87;13.07;;;;;;;;;;31569958;28;20059;-74
2023/12/19 06:21:55;;;;;;;42.20;13.03;;;;;;;;;;31590415;28;20051;-76
2023/12/19 06:36:57;;;;;;;38.17;12.33;;;;;;;;;;31603249;28;20044;-75
2023/12/19 06:51:59;;;;;;;37.67;12.67;;;;;;;;;;31597240;28;20048;-75
2023/12/19 07:07:01;;;;;;;40.77;13.37;;;;;;;;;;31607270;28;20048;-76
2023/12/19 07:22:03;;;;;;;41.97;13.63;;;;;;;;;;31614755;28;20423;-76
2023/12/19 07:37:05;;;;;;;59.13;15.33;;;;;;;;;;31577665;28;20542;-72
2023/12/19 07:52:07;;;;;;;43.10;14.20;;;;;;;;;;31621187;28;20086;-73
2023/12/19 08:07:09;;;;;;;47.93;15.50;;;;;;;;;;31568452;28;20060;-74
2023/12/19 08:22:11;;;;;;;40.27;13.87;;;;;;;;;;31591489;28;20052;-73
2023/12/19 08:37:13;;;;;;;44.77;13.30;;;;;;;;;;31494842;28;20048;-74
2023/12/19 08:52:14;;;;;;;41.30;13.50;;;;;;;;;;31597442;28;20051;-73
2023/12/19 09:07:16;;;;;;;35.93;13.33;;;;;;;;;;31544574;28;20572;-74
2023/12/19 09:22:19;;;;;;;46.23;17.13;;;;;;;;;;31586897;28;20052;-77
2023/12/19 09:37:26;;;;;;;41.93;13.77;;;;;;;;;;31611940;28;20051;-79
2023/12/19 09:52:28;;;;;;;44.57;15.07;;;;;;;;;;31612577;28;20466;-78
2023/12/19 10:07:30;;;;;;;41.03;13.37;;;;;;;;;;31564263;28;20059;-77
2023/12/19 10:22:34;;;;;;;46.57;14.87;;;;;;;;;;31563440;28;20498;-75
2023/12/19 10:37:36;;;;;;;42.97;13.47;;;;;;;;;;31624058;28;20403;-75
2023/12/19 10:52:48;;;;;;;42.63;14.53;;;;;;;;;;31625191;28;20094;-75
2023/12/19 11:07:51;;;;;;;48.40;15.27;;;;;;;;;;31575892;28;20052;-83
2023/12/19 11:22:56;;;;;;;;;;;;;;;;;;31637305;28;20044;-80
2023/12/19 11:38:13;;;;;;;43.10;17.27;;;;;;;;;;31572967;28;19921;-77
2023/12/19 11:53:21;;;;;;;55.13;17.30;;;;;;;;;;31599499;28;20039;-80
2023/12/19 12:08:23;;;;;;;47.47;17.27;;;;;;;;;;31574104;28;20597;-76
2023/12/19 12:23:25;;;;;;;44.70;16.93;;;;;;;;;;31554023;28;20062;-76
2023/12/19 12:38:27;;;;;;;38.77;15.67;;;;;;;;;;31560846;28;20049;-79
2023/12/19 12:53:28;;;;;;;26.47;11.97;;;;;;;;;;31557992;28;20492;-79
2023/12/19 13:08:31;;;;;;;29.23;11.87;;;;;;;;;;31547825;28;20143;-78
2023/12/19 13:23:33;;;;;;;24.37;10.77;;;;;;;;;;31615084;28;20463;-78
2023/12/19 13:38:35;;;;;;;27.00;11.83;;;;;;;;;;31591604;28;20139;-78
2023/12/19 13:53:37;;;;;;;20.67;9.27;;;;;;;;;;31581708;28;20076;-76
2023/12/19 14:08:45;;;;;;;18.63;8.13;;;;;;;;;;31553368;28;20051;-78
2023/12/19 14:23:48;;;;;;;21.20;8.67;;;;;;;;;;31565334;28;20044;-77
2023/12/19 14:38:50;;;;;;;17.17;7.00;;;;;;;;;;31533762;28;20057;-77
2023/12/19 14:53:56;;;;;;;14.13;6.53;;;;;;;;;;31553101;28;20048;-78
2023/12/19 15:08:58;;;;;;;;;;;;;;;;;;31536108;28;20048;-78
2023/12/19 15:24:00;;;;;;;13.27;6.40;;;;;;;;;;31540783;28;20002;-75
2023/12/19 15:39:03;;;;;;;19.57;7.13;;;;;;;;;;31554036;28;20059;-75
2023/12/19 15:54:05;;;;;;;14.87;7.10;;;;;;;;;;31568548;28;20094;-77
2023/12/19 16:09:07;;;;;;;16.40;8.00;;;;;;;;;;31553151;28;20048;-79
2023/12/19 16:24:09;;;;;;;19.27;7.97;;;;;;;;;;31563676;28;20052;-85
2023/12/19 16:39:11;;;;;;;14.50;6.63;;;;;;;;;;31589906;28;20047;-84
2023/12/19 16:54:13;;;;;;;14.87;8.00;;;;;;;;;;31582829;28;20044;-85
2023/12/19 17:09:16;;;;;;;12.00;7.23;;;;;;;;;;31537486;28;20090;-80
2023/12/19 17:24:17;;;;;;;15.63;7.37;;;;;;;;;;31538562;28;20557;-79
2023/12/19 17:39:25;;;;;;;30.50;11.50;;;;;;;;;;31569338;28;20071;-78
2023/12/19 17:54:26;;;;;;;19.03;8.40;;;;;;;;;;31554905;28;20048;-78
2023/12/19 18:09:28;;;;;;;18.70;9.53;;;;;;;;;;31566896;28;20117;-79
2023/12/19 18:24:30;;;;;;;26.10;9.47;;;;;;;;;;31584755;28;20048;-78
2023/12/19 18:39:32;;;;;;;16.50;7.93;;;;;;;;;;31530147;28;20045;-79
2023/12/19 18:54:34;;;;;;;24.60;8.40;;;;;;;;;;31553872;28;20439;-77
2023/12/19 19:09:37;;;;;;;27.47;9.87;;;;;;;;;;31561909;28;20057;-75
2023/12/19 19:24:39;;;;;;;21.37;8.47;;;;;;;;;;31530504;28;20127;-74
2023/12/19 19:39:42;;;;;;;15.07;7.37;;;;;;;;;;31541487;28;20076;-76
2023/12/19 19:54:49;;;;;;;22.23;9.10;;;;;;;;;;31530754;28;20071;-76
2023/12/19 20:09:51;;;;;;;11.77;6.55;;;;;;;;;;31545913;28;20420;-76
2023/12/19 20:24:53;;;;;;;23.00;8.47;;;;;;;;;;31539568;28;20415;-76
2023/12/19 20:39:55;;;;;;;18.53;8.43;;;;;;;;;;31549591;28;20058;-74
2023/12/19 20:54:59;;;;;;;18.30;9.03;;;;;;;;;;31549564;28;20109;-76
2023/12/19 21:10:01;;;;;;;18.10;7.70;;;;;;;;;;31541903;28;20064;-77
2023/12/19 21:25:04;;;;;;;19.67;7.80;;;;;;;;;;31540118;28;20058;-75
2023/12/19 21:40:06;;;;;;;18.83;8.40;;;;;;;;;;31541026;28;20048;-77
2023/12/19 21:55:08;;;;;;;25.27;8.93;;;;;;;;;;31529756;28;20410;-76
2023/12/19 22:10:11;;;;;;;16.80;7.57;;;;;;;;;;31574419;28;20055;-75
2023/12/19 22:25:13;;;;;;;20.93;9.13;;;;;;;;;;31578630;28;20153;-74
2023/12/19 22:40:15;;;;;;;24.03;9.30;;;;;;;;;;31571351;28;20105;-74
2023/12/19 22:55:18;;;;;;;22.73;9.63;;;;;;;;;;31594234;28;20433;-77
2023/12/19 23:10:20;;;;;;;24.00;8.40;;;;;;;;;;31559606;28;20052;-77
2023/12/19 23:25:25;;;;;;;24.13;8.57;;;;;;;;;;31507412;28;20044;-76
2023/12/19 23:40:27;;;;;;;27.67;8.73;;;;;;;;;;31499977;28;20079;-77
2023/12/19 23:55:29;;;;;;;19.00;8.33;;;;;;;;;;31513179;28;20056;-76
